Airfield :







YOU CAN JOIN US ON...

 
LOGIN :

Register | Disclaimer

   EN    FR    IT 

 









Legend :    VFR   Marginal VFR   IFR   Intensive IFR   Very Intensive IFR
Visi :
Ceiling :
>= 8 km
>= 3000ft
5 to 8 km
1000 to 3000 ft
1500m to 5 km
500 to 1000 ft
800 to 1500m
200 to 500 ft
< 800m
< 200 ft
Symbols :   Thunderstorms  Fog  Heavy snow  Heavy precipitations  Wind > 20 kt






- Airport Elevation : 477 ft
- IATA code : YHZ


CYHZ - Halifax Stanfield Int.

CURRENT METAR :
  • 161900Z 01006KT 12SM SCT020 BKN044 OVC200 20/16 A3026 RMK SF3SC4CC1 SLP250 DENSITY ALT 800FT

EXPIRED METARs :
  • 161800Z 34004KT 320V040 12SM SCT016 BKN030 OVC190 20/17 A3026 RMK SF3SC4AC1 CIG RAG CU ASOCTD SLP249 DENSITY ALT 800FT
  • 161716Z 32006KT 260V030 12SM SCT010 BKN016 BKN100 20/16 A3024 RMK SF3SC3AS1 CIG RAG CU ASOCTD SLP242 DENSITY ALT 900FT
  • 161700Z 35006KT 310V010 12SM SCT010 BKN013 BKN250 20/17 A3023 RMK SF3SC4CI1 CI TR CIG RAG CU ASOCTD SLP240 DENSITY ALT 800FT
  • 161620Z 34006KT 12SM -SHRA SCT009 BKN020 OVC120 19/17 A3022 RMK SF4SC3AC1 CU ASOCTD SLP235 DENSITY ALT 800FT

TAF TAF CYHZ
Valid from the 16 at 18:00 until the 17 at 18:00 UTC


161738Z 1618/1718 31008KT P6SM FEW015
TEMPO 1618/1619 BKN015
FM170000 VRB03KT P6SM SCT008
PROB40 1706/1709 1/2SM FG VV003
FM171000 VRB03KT 1/2SM -DZ FG VV002
TEMPO 1710/1713 2SM BR OVC004
FM171300 17007KT 6SM BR SCT002 BKN004 OVC006
TEMPO 1713/1716 2SM -DZ BR OVC002 RMK NXT FCST BY 162100Z
CZQM FIR / North America



MET'MAP, your aeronautical weather chart ! - Copyright ORBIFLY December 2007 - Disclaimer

ORBIFLY MET'MAP TEAM :

Programming & Development : Alexandra Zaïnal
Concept & original design : Baudouin d'Aumeries
Assistance for programming : Marc-Olivier Méhu
Technical & hardware support : Manuel Goepfert

Contact : metmap@orbifly.com




SOURCES & CREDITS :

   NOAA